Time;durP1;ratioP1;P1;durP2;ratioP2;P2;SDS_P1;SDS_P2;PMS_P1;PMS_P2;Temp;Humidity;BMP_temperature;BMP_pressure;BME280_temperature;BME280_humidity;BME280_pressure;Samples;Min_cycle;Max_cycle;Signal;HPM_P1;HPM_P2
2022/01/09 00:00:00;;;;;;;71.20;28.30;;;;;;;9.22;90.80;99187.03;5040853;28;20030;-77
2022/01/09 00:02:25;;;;;;;74.82;28.75;;;;;;;9.63;89.97;99230.09;5040371;28;20048;-77
2022/01/09 00:04:51;;;;;;;71.25;28.58;;;;;;;9.58;91.08;99222.66;5036888;28;20033;-77
2022/01/09 00:07:17;;;;;;;76.60;29.27;;;;;;;9.52;91.25;99225.16;5035276;28;20231;-78
2022/01/09 00:09:44;;;;;;;76.60;31.25;;;;;;;9.41;91.18;99199.09;5037558;28;20033;-77
2022/01/09 00:12:10;;;;;;;80.25;31.42;;;;;;;9.60;90.39;99201.34;5036979;28;20038;-78
2022/01/09 00:14:36;;;;;;;76.85;29.48;;;;;;;9.54;90.82;99202.03;5040080;28;20041;-78
2022/01/09 00:17:01;;;;;;;79.43;32.47;;;;;;;9.47;91.14;99211.63;5041479;28;20319;-77
2022/01/09 00:19:28;;;;;;;76.93;30.15;;;;;;;9.54;90.44;99200.22;5039586;28;20040;-77
2022/01/09 00:21:53;;;;;;;77.03;30.00;;;;;;;9.58;90.19;99209.44;5036087;28;20339;-77
2022/01/09 00:24:22;;;;;;;72.85;29.27;;;;;;;9.27;92.04;99200.56;5037249;28;20030;-77
2022/01/09 00:26:48;;;;;;;72.65;29.45;;;;;;;9.04;93.05;99196.94;5038285;28;20052;-77
2022/01/09 00:29:14;;;;;;;82.18;29.70;;;;;;;9.23;92.72;99200.06;5041083;28;20037;-77
2022/01/09 00:31:39;;;;;;;76.00;31.20;;;;;;;9.18;93.47;99205.03;5038043;28;20048;-78
2022/01/09 00:34:05;;;;;;;77.32;32.40;;;;;;;9.20;92.39;99176.63;5031872;28;20041;-77
2022/01/09 00:36:33;;;;;;;73.40;30.45;;;;;;;9.18;93.04;99194.44;5038319;28;20032;-78
2022/01/09 00:38:58;;;;;;;76.80;31.05;;;;;;;9.13;93.04;99194.13;5041225;28;20022;-77
2022/01/09 00:41:24;;;;;;;74.65;29.75;;;;;;;9.28;92.48;99197.75;5037664;28;20037;-77
2022/01/09 00:43:50;;;;;;;68.43;27.40;;;;;;;9.23;92.71;99197.41;5034293;28;20293;-77
2022/01/09 00:46:16;;;;;;;71.22;28.33;;;;;;;9.18;93.30;99191.81;5036731;28;20033;-77
2022/01/09 00:48:42;;;;;;;65.38;26.23;;;;;;;9.07;93.03;99172.84;5035909;28;20045;-77
2022/01/09 00:51:07;;;;;;;70.03;28.38;;;;;;;9.23;93.06;99193.94;5037140;28;20033;-77
2022/01/09 00:53:32;;;;;;;75.65;28.50;;;;;;;9.25;93.03;99191.97;5034079;28;20267;-77
2022/01/09 00:55:58;;;;;;;67.03;28.73;;;;;;;8.95;93.34;99167.88;5036641;28;20247;-77
2022/01/09 00:58:23;;;;;;;63.53;27.80;;;;;;;8.91;93.67;99177.13;5035453;28;20100;-77
2022/01/09 01:00:49;;;;;;;70.25;27.40;;;;;;;8.93;93.79;99172.50;5040407;28;20117;-77
2022/01/09 01:03:14;;;;;;;73.63;28.02;;;;;;;8.64;95.03;99175.63;5037455;28;20022;-77
2022/01/09 01:05:40;;;;;;;77.78;30.00;;;;;;;8.76;94.67;99165.59;5036068;28;20251;-77
2022/01/09 01:08:05;;;;;;;74.18;29.42;;;;;;;8.76;94.83;99178.78;5035008;28;20037;-77
2022/01/09 01:10:31;;;;;;;75.50;30.67;;;;;;;8.66;95.73;99169.38;5030872;28;20069;-77
2022/01/09 01:12:56;;;;;;;81.43;31.98;;;;;;;8.44;96.80;99155.00;5035438;28;20052;-77
2022/01/09 01:15:22;;;;;;;72.13;31.08;;;;;;;8.63;96.21;99162.59;5033827;28;20061;-77
2022/01/09 01:17:48;;;;;;;77.20;30.55;;;;;;;8.64;96.29;99161.63;5039126;28;20090;-77
2022/01/09 01:20:13;;;;;;;73.78;30.70;;;;;;;8.67;96.20;99161.28;5040345;28;20048;-77
2022/01/09 01:22:40;;;;;;;74.13;31.60;;;;;;;8.73;95.98;99170.38;5034890;28;20037;-77
2022/01/09 01:25:07;;;;;;;66.68;28.95;;;;;;;8.87;95.06;99175.00;5034646;28;20228;-77
2022/01/09 01:27:33;;;;;;;64.97;27.95;;;;;;;8.86;93.94;99176.81;5035668;28;20029;-77
2022/01/09 01:29:58;;;;;;;67.88;28.67;;;;;;;8.82;94.50;99175.47;5038184;28;20426;-77
2022/01/09 01:32:24;;;;;;;66.18;27.70;;;;;;;8.75;94.80;99161.28;5040677;28;20092;-77
2022/01/09 01:34:51;;;;;;;66.18;28.33;;;;;;;8.83;93.69;99153.38;5034176;28;20033;-77
2022/01/09 01:37:16;;;;;;;65.03;27.38;;;;;;;8.86;94.08;99136.38;5039503;28;20067;-77
2022/01/09 01:39:41;;;;;;;76.75;28.13;;;;;;;9.06;93.72;99150.06;5040108;28;20029;-77
2022/01/09 01:42:07;;;;;;;83.00;33.13;;;;;;;9.06;93.26;99161.44;5039416;28;20044;-77
2022/01/09 01:44:44;;;;;;;74.60;30.55;;;;;;;9.10;92.76;99151.38;5040349;28;20067;-77
2022/01/09 01:47:10;;;;;;;68.78;29.42;;;;;;;9.11;93.26;99156.50;5039739;28;20316;-78
2022/01/09 01:49:36;;;;;;;72.80;29.02;;;;;;;9.19;92.36;99155.66;5041945;28;20132;-77
2022/01/09 01:52:02;;;;;;;67.63;27.08;;;;;;;9.31;90.58;99135.00;5037802;28;20046;-77
2022/01/09 01:54:28;;;;;;;72.50;29.83;;;;;;;9.30;91.37;99131.53;5042789;28;20033;-77
2022/01/09 01:56:54;;;;;;;61.20;27.55;;;;;;;9.31;91.04;99133.19;5042585;28;20041;-77
2022/01/09 01:59:20;;;;;;;67.35;28.00;;;;;;;9.04;92.04;99123.00;5044538;28;20097;-77
2022/01/09 02:01:45;;;;;;;68.32;28.58;;;;;;;8.54;94.09;99100.25;5042559;28;20033;-77
2022/01/09 02:04:10;;;;;;;75.13;31.30;;;;;;;8.62;94.86;99094.97;5038108;28;20044;-77
2022/01/09 02:06:36;;;;;;;72.38;30.48;;;;;;;9.07;93.50;99112.91;5040737;28;20067;-77
2022/01/09 02:09:05;;;;;;;74.57;31.27;;;;;;;9.26;91.55;99119.66;5042249;28;20017;-77
2022/01/09 02:11:32;;;;;;;83.72;32.47;;;;;;;9.34;89.87;99116.97;5039320;28;20061;-77
2022/01/09 02:13:58;;;;;;;78.95;30.98;;;;;;;9.32;90.69;99126.91;5043150;28;20029;-77
2022/01/09 02:16:23;;;;;;;67.90;28.58;;;;;;;9.22;91.29;99127.09;5042201;28;20347;-77
2022/01/09 02:18:50;;;;;;;68.88;27.73;;;;;;;9.28;91.33;99122.94;5040698;28;20060;-77
2022/01/09 02:21:17;;;;;;;73.05;28.35;;;;;;;9.34;91.28;99118.81;5040709;28;20049;-77
2022/01/09 02:23:47;;;;;;;61.70;27.90;;;;;;;9.32;90.98;99102.28;5040514;28;20064;-77
2022/01/09 02:26:18;;;;;;;69.20;28.08;;;;;;;9.50;90.50;99114.31;5026320;28;20258;-77
2022/01/09 02:28:43;;;;;;;68.22;28.30;;;;;;;9.44;90.17;99104.44;5023906;28;20033;-77
2022/01/09 02:31:09;;;;;;;67.93;27.80;;;;;;;9.42;90.33;99105.59;5025268;28;20042;-77
2022/01/09 02:33:35;;;;;;;64.43;26.77;;;;;;;9.41;90.73;99094.22;5023726;28;20022;-77
2022/01/09 02:36:00;;;;;;;64.50;28.83;;;;;;;9.43;90.39;99088.75;5024911;28;20041;-77
2022/01/09 02:38:26;;;;;;;65.25;28.98;;;;;;;9.49;89.83;99078.31;5023532;28;20033;-77
2022/01/09 02:40:53;;;;;;;68.72;29.92;;;;;;;9.54;89.53;99088.38;5023782;28;20040;-77
2022/01/09 02:43:20;;;;;;;115.35;36.15;;;;;;;9.62;89.22;99082.25;5023538;28;20025;-77
2022/01/09 02:45:49;;;;;;;72.85;30.23;;;;;;;9.62;89.15;99076.94;5024832;28;20052;-77
2022/01/09 02:48:15;;;;;;;64.85;28.98;;;;;;;9.61;88.41;99073.47;5024699;28;20021;-77
2022/01/09 02:50:51;;;;;;;67.22;28.98;;;;;;;9.59;89.12;99078.13;5024853;28;20030;-77
2022/01/09 02:53:19;;;;;;;74.53;30.67;;;;;;;9.56;89.57;99081.09;5024867;28;20038;-77
2022/01/09 02:56:08;;;;;;;81.05;32.08;;;;;;;9.50;89.42;99066.75;5079654;28;20650;-76
2022/01/09 02:58:34;;;;;;;79.95;31.65;;;;;;;9.55;88.97;99069.72;5079411;28;20020;-76
2022/01/09 03:01:00;;;;;;;86.85;33.30;;;;;;;9.61;88.41;99065.56;5079620;28;20039;-76
2022/01/09 03:03:26;;;;;;;77.95;33.15;;;;;;;9.50;88.95;99055.38;5079372;28;20311;-76
2022/01/09 03:05:52;;;;;;;91.47;36.35;;;;;;;9.54;88.91;99062.78;5080047;28;20033;-76
2022/01/09 03:08:17;;;;;;;87.00;36.60;;;;;;;8.99;91.26;99062.75;5079310;28;20031;-75
2022/01/09 03:10:43;;;;;;;87.20;37.08;;;;;;;8.99;91.98;99052.19;5078343;28;20033;-75
2022/01/09 03:13:09;;;;;;;96.53;41.97;;;;;;;9.23;91.10;99067.97;5067134;28;20031;-76
2022/01/09 03:15:34;;;;;;;90.47;38.28;;;;;;;9.33;90.32;99053.75;5058914;28;20049;-76
2022/01/09 03:18:03;;;;;;;94.15;37.92;;;;;;;9.17;91.21;99060.72;5058059;28;20049;-76
2022/01/09 03:20:29;;;;;;;93.10;37.78;;;;;;;9.06;92.04;99057.63;5057999;28;20319;-76
2022/01/09 03:22:56;;;;;;;93.43;37.60;;;;;;;9.07;91.83;99054.81;5059700;28;20037;-76
2022/01/09 03:25:23;;;;;;;91.47;36.78;;;;;;;9.05;92.46;99063.91;5062646;28;20037;-76
2022/01/09 03:27:49;;;;;;;89.55;36.55;;;;;;;8.96;92.92;99045.44;5069899;28;20364;-76
2022/01/09 03:30:17;;;;;;;93.38;36.20;;;;;;;9.22;91.06;99063.69;5077854;28;20028;-76
2022/01/09 03:32:43;;;;;;;84.20;34.88;;;;;;;9.29;91.09;99056.72;5074877;28;20044;-75
2022/01/09 03:35:13;;;;;;;95.80;36.53;;;;;;;9.22;91.17;99050.47;5074480;28;20078;-76
2022/01/09 03:37:40;;;;;;;89.22;36.95;;;;;;;9.34;90.38;99056.22;5075572;28;20199;-75
2022/01/09 03:40:08;;;;;;;88.50;35.45;;;;;;;9.13;90.11;99018.97;5074852;28;20208;-77
2022/01/09 03:42:33;;;;;;;89.47;35.97;;;;;;;9.29;90.57;99064.66;5069069;28;20036;-78
2022/01/09 03:44:59;;;;;;;85.95;36.67;;;;;;;9.22;91.24;99058.41;5060044;28;20048;-78
2022/01/09 03:47:24;;;;;;;94.07;37.72;;;;;;;9.36;90.28;99056.03;5056330;28;20067;-78
2022/01/09 03:49:50;;;;;;;93.05;36.60;;;;;;;9.39;90.07;99048.63;5056709;28;20037;-78
2022/01/09 03:52:17;;;;;;;91.97;35.67;;;;;;;9.31;90.71;99061.03;5058824;28;20097;-78
2022/01/09 03:54:43;;;;;;;93.65;38.50;;;;;;;9.19;90.58;99053.47;5061172;28;20047;-78
2022/01/09 03:57:08;;;;;;;105.05;40.63;;;;;;;9.35;89.76;99051.75;5067313;28;20032;-78
2022/01/09 03:59:34;;;;;;;93.05;38.83;;;;;;;9.03;90.89;99047.41;5057254;28;20300;-77
2022/01/09 04:02:00;;;;;;;93.47;41.33;;;;;;;8.79;92.68;99045.66;5056981;28;20047;-78
2022/01/09 04:04:26;;;;;;;103.60;41.22;;;;;;;8.66;92.85;99054.06;5073397;28;20090;-78
2022/01/09 04:06:51;;;;;;;104.32;40.05;;;;;;;8.86;92.62;99036.88;5049397;28;20029;-77
2022/01/09 04:09:28;;;;;;;100.50;38.80;;;;;;;8.76;93.22;99038.88;5043604;28;20033;-76
2022/01/09 04:12:03;;;;;;;99.22;38.92;;;;;;;8.84;93.02;99049.44;5043441;28;20040;-75
2022/01/09 04:14:29;;;;;;;103.57;39.15;;;;;;;8.89;93.44;99046.28;5048894;28;20219;-76
2022/01/09 04:16:54;;;;;;;95.15;37.13;;;;;;;8.84;93.39;99020.38;5061247;28;20059;-76
2022/01/09 04:19:20;;;;;;;95.68;38.85;;;;;;;9.22;91.30;99031.16;5063327;28;20354;-77
2022/01/09 04:21:45;;;;;;;101.13;39.45;;;;;;;9.28;90.79;99038.41;5060224;28;20033;-78
2022/01/09 04:24:11;;;;;;;98.53;37.35;;;;;;;9.33;90.72;99044.00;5058613;28;20071;-78
2022/01/09 04:26:37;;;;;;;104.00;39.85;;;;;;;9.25;90.62;99031.66;5062012;28;20021;-77
2022/01/09 04:29:03;;;;;;;106.40;39.75;;;;;;;9.15;91.35;99022.28;5056116;28;20037;-77
2022/01/09 04:31:29;;;;;;;101.55;39.35;;;;;;;9.35;91.32;99046.47;5044710;28;20034;-78
2022/01/09 04:33:54;;;;;;;101.25;38.70;;;;;;;9.39;90.41;99040.72;5043791;28;20207;-78
2022/01/09 04:36:20;;;;;;;99.82;38.95;;;;;;;9.37;89.72;99032.13;5044685;28;20087;-78
2022/01/09 04:38:45;;;;;;;98.93;38.38;;;;;;;9.47;89.43;99031.91;5042494;28;20022;-78
2022/01/09 04:41:10;;;;;;;112.25;41.20;;;;;;;9.47;88.42;99021.34;5052256;28;20029;-78
2022/01/09 04:43:36;;;;;;;101.38;39.08;;;;;;;9.32;89.79;99025.69;5064151;28;20031;-78
2022/01/09 04:46:01;;;;;;;101.40;37.70;;;;;;;9.21;90.85;99030.34;5060621;28;20060;-77
2022/01/09 04:48:27;;;;;;;99.85;38.67;;;;;;;9.25;90.00;99012.34;5063979;28;20021;-77
2022/01/09 04:50:53;;;;;;;104.88;39.28;;;;;;;9.02;91.64;99027.28;5060674;28;20044;-78
2022/01/09 04:53:19;;;;;;;118.32;41.22;;;;;;;8.97;92.36;99019.84;5062951;28;20331;-78
2022/01/09 04:55:47;;;;;;;110.25;40.58;;;;;;;8.94;92.53;99023.66;5060210;28;20086;-77
2022/01/09 04:58:13;;;;;;;107.05;39.17;;;;;;;9.02;91.69;99029.91;5063592;28;20029;-78
2022/01/09 05:00:41;;;;;;;111.45;41.05;;;;;;;8.98;92.01;99036.53;5058379;28;20069;-78
2022/01/09 05:03:08;;;;;;;104.10;41.13;;;;;;;8.97;91.76;99009.28;5063962;28;20037;-78
2022/01/09 05:05:34;;;;;;;110.00;42.67;;;;;;;9.08;91.71;99035.34;5059972;28;20219;-78
2022/01/09 05:07:59;;;;;;;107.22;41.05;;;;;;;8.89;93.18;99030.44;5058965;28;20033;-78
2022/01/09 05:10:25;;;;;;;117.20;41.75;;;;;;;8.82;92.25;99011.81;5063079;28;20041;-78
2022/01/09 05:12:51;;;;;;;97.63;38.78;;;;;;;8.94;92.42;99023.66;5058645;28;20029;-77
2022/01/09 05:15:19;;;;;;;112.13;42.33;;;;;;;8.80;93.54;99024.34;5062857;28;20068;-77
2022/01/09 05:17:45;;;;;;;118.85;41.78;;;;;;;8.88;93.27;99026.97;5042086;28;20082;-77
2022/01/09 05:20:11;;;;;;;114.22;41.35;;;;;;;8.95;92.51;99025.31;5043245;28;20302;-77
2022/01/09 05:22:36;;;;;;;113.07;40.63;;;;;;;8.67;92.33;98973.91;5049616;28;20030;-78
2022/01/09 05:25:06;;;;;;;116.13;43.25;;;;;;;8.96;92.47;99019.03;5050874;28;20201;-78
2022/01/09 05:27:32;;;;;;;110.10;41.92;;;;;;;8.99;92.20;99023.16;5045867;28;20071;-78
2022/01/09 05:29:57;;;;;;;112.25;41.30;;;;;;;8.97;92.79;99017.22;5061934;28;20044;-78
2022/01/09 05:32:23;;;;;;;113.97;42.22;;;;;;;9.07;92.52;99019.66;5058990;28;20102;-78
2022/01/09 05:34:48;;;;;;;110.28;41.75;;;;;;;9.19;91.16;99028.88;5056649;28;20045;-78
2022/01/09 05:37:14;;;;;;;109.95;41.92;;;;;;;9.13;91.47;99003.13;5062178;28;20029;-78
2022/01/09 05:39:39;;;;;;;109.18;40.72;;;;;;;9.19;90.27;99016.47;5055500;28;20093;-78
2022/01/09 05:42:07;;;;;;;106.63;40.58;;;;;;;9.20;91.12;99028.69;5043178;28;20034;-76
2022/01/09 05:44:33;;;;;;;121.25;43.72;;;;;;;8.91;91.86;99021.34;5040335;28;20029;-76
2022/01/09 05:47:02;;;;;;;114.40;42.17;;;;;;;8.96;93.14;99026.97;5049506;28;20039;-76
2022/01/09 05:49:27;;;;;;;112.13;41.25;;;;;;;8.99;93.20;99009.94;5052696;28;20029;-76
2022/01/09 05:51:53;;;;;;;122.18;44.15;;;;;;;9.13;91.93;99017.16;5052820;28;20059;-76
2022/01/09 05:54:18;;;;;;;121.38;41.20;;;;;;;9.16;91.45;99018.66;5046783;28;20053;-76
2022/01/09 05:56:44;;;;;;;124.78;42.15;;;;;;;9.27;91.58;99028.84;5043706;28;20124;-76
2022/01/09 05:59:09;;;;;;;115.45;40.15;;;;;;;9.21;91.31;99025.06;5041147;28;20037;-76
2022/01/09 06:01:35;;;;;;;112.68;40.80;;;;;;;9.15;91.41;99036.31;5041553;28;20072;-76
2022/01/09 06:04:01;;;;;;;110.80;40.05;;;;;;;9.18;91.96;99051.00;5042616;28;20072;-76
2022/01/09 06:06:27;;;;;;;114.18;40.08;;;;;;;8.99;92.16;99038.16;5041257;28;20041;-76
2022/01/09 06:08:52;;;;;;;110.03;38.00;;;;;;;8.99;91.86;99035.53;5042818;28;20045;-75
2022/01/09 06:11:18;;;;;;;106.40;38.08;;;;;;;8.75;93.35;99041.69;5041164;28;20406;-76
2022/01/09 06:13:43;;;;;;;105.88;37.58;;;;;;;8.73;93.85;99028.66;5046776;28;20035;-76
2022/01/09 06:16:09;;;;;;;103.10;38.17;;;;;;;8.92;93.62;99030.94;5049078;28;20367;-76
2022/01/09 06:18:34;;;;;;;114.68;38.92;;;;;;;8.94;93.27;99025.47;5052470;28;20052;-76
2022/01/09 06:21:00;;;;;;;111.43;38.00;;;;;;;9.12;92.03;99030.53;5051499;28;20039;-76
2022/01/09 06:23:25;;;;;;;103.82;37.00;;;;;;;9.19;91.60;99034.16;5051572;28;20021;-76
2022/01/09 06:25:51;;;;;;;104.75;37.55;;;;;;;9.29;90.80;99038.25;5054546;28;20067;-76
2022/01/09 06:28:17;;;;;;;89.13;33.97;;;;;;;9.18;91.69;99035.97;5045009;28;20246;-76
2022/01/09 06:30:43;;;;;;;126.53;47.60;;;;;;;9.29;90.26;99026.84;5039897;28;20055;-75
2022/01/09 06:33:10;;;;;;;93.30;36.15;;;;;;;9.24;89.57;99022.06;5039707;28;20315;-77
2022/01/09 06:35:36;;;;;;;95.20;35.30;;;;;;;9.18;89.73;99019.28;5044205;28;20327;-78
2022/01/09 06:38:03;;;;;;;98.03;37.45;;;;;;;9.25;90.04;99031.66;5048098;28;20603;-77
2022/01/09 06:40:28;;;;;;;171.75;51.50;;;;;;;9.25;90.90;99017.63;5061168;28;20040;-77
2022/01/09 06:42:53;;;;;;;123.70;44.33;;;;;;;9.18;91.48;99024.56;5056724;28;20071;-76
2022/01/09 06:45:21;;;;;;;97.68;37.30;;;;;;;8.85;91.53;98979.78;5041762;28;20096;-76
2022/01/09 06:47:47;;;;;;;84.68;32.75;;;;;;;9.02;92.58;98999.06;5041704;28;20123;-76
2022/01/09 06:50:14;;;;;;;85.93;32.78;;;;;;;9.05;92.26;99011.09;5040659;28;20046;-76
2022/01/09 06:52:40;;;;;;;78.93;30.33;;;;;;;9.21;91.46;99003.94;5041984;28;20354;-75
2022/01/09 06:55:07;;;;;;;77.45;30.95;;;;;;;9.47;89.59;99010.78;5041079;28;20398;-75
2022/01/09 06:57:32;;;;;;;88.65;35.13;;;;;;;9.21;91.04;99011.03;5040798;28;20025;-76
2022/01/09 06:59:58;;;;;;;103.72;39.45;;;;;;;9.11;92.60;99005.13;5051848;28;20323;-75
2022/01/09 07:02:23;;;;;;;95.20;38.42;;;;;;;9.04;92.67;99012.91;5053232;28;20041;-76
2022/01/09 07:04:48;;;;;;;91.70;38.03;;;;;;;9.23;92.54;99011.69;5060390;28;20056;-76
2022/01/09 07:07:14;;;;;;;80.68;34.15;;;;;;;9.20;91.33;98981.16;5055182;28;20089;-76
2022/01/09 07:09:39;;;;;;;109.70;37.13;;;;;;;9.16;92.27;98986.94;5058572;28;20051;-76
2022/01/09 07:12:07;;;;;;;118.97;44.30;;;;;;;9.25;91.87;98978.00;5060360;28;20028;-75
2022/01/09 07:14:32;;;;;;;121.68;45.83;;;;;;;9.41;90.81;98972.66;5044016;28;20077;-75
2022/01/09 07:16:57;;;;;;;90.68;34.83;;;;;;;9.12;90.69;98938.09;5039623;28;20021;-75
2022/01/09 07:19:23;;;;;;;84.20;34.45;;;;;;;9.15;91.35;98961.53;5039874;28;20063;-76
2022/01/09 07:21:48;;;;;;;80.88;34.47;;;;;;;9.19;92.61;98965.47;5041909;28;20033;-78
2022/01/09 07:24:14;;;;;;;85.07;33.40;;;;;;;9.37;92.17;98983.75;5040829;28;20044;-78
2022/01/09 07:26:39;;;;;;;116.72;44.88;;;;;;;9.41;91.65;98971.84;5039583;28;20087;-78
2022/01/09 07:29:05;;;;;;;106.15;42.38;;;;;;;9.56;90.26;98973.56;5055661;28;20033;-75
2022/01/09 07:31:30;;;;;;;178.02;62.55;;;;;;;9.72;89.28;98985.84;5052106;28;20021;-76
2022/01/09 07:33:56;;;;;;;122.35;50.15;;;;;;;9.67;88.59;98979.44;5041872;28;20038;-76
2022/01/09 07:36:21;;;;;;;131.85;51.00;;;;;;;9.63;88.52;98996.66;5050495;28;20021;-75
2022/01/09 07:38:46;;;;;;;88.85;36.58;;;;;;;9.66;88.69;98985.72;5043927;28;20044;-75
2022/01/09 07:41:14;;;;;;;71.03;31.42;;;;;;;9.72;87.63;98988.50;5046344;28;20037;-75
2022/01/09 07:43:40;;;;;;;77.65;34.97;;;;;;;9.72;88.03;98975.28;5043748;28;20033;-75
2022/01/09 07:46:06;;;;;;;97.95;41.05;;;;;;;9.79;88.18;98991.28;5043308;28;20025;-75
2022/01/09 07:48:32;;;;;;;105.68;45.92;;;;;;;9.51;89.53;98977.72;5047230;28;20052;-78
2022/01/09 07:50:57;;;;;;;105.10;44.33;;;;;;;9.51;89.54;98962.69;5048276;28;20037;-75
2022/01/09 07:53:23;;;;;;;87.72;37.20;;;;;;;9.77;88.83;98970.28;5051444;28;20033;-77
2022/01/09 07:55:52;;;;;;;75.07;33.20;;;;;;;9.84;86.64;98970.41;5050447;28;20045;-75
2022/01/09 07:58:18;;;;;;;83.38;35.95;;;;;;;9.43;88.67;98977.78;5054794;28;20052;-76
2022/01/09 08:00:44;;;;;;;83.40;34.78;;;;;;;9.51;88.60;98975.91;5050526;28;20052;-76
2022/01/09 08:03:12;;;;;;;83.93;34.10;;;;;;;9.51;89.88;98970.63;5051986;28;20219;-78
2022/01/09 08:05:38;;;;;;;82.80;33.20;;;;;;;9.43;90.38;98975.13;5058282;28;20032;-78
2022/01/09 08:08:05;;;;;;;84.95;33.35;;;;;;;9.48;88.56;98965.69;5062312;28;20044;-76
2022/01/09 08:10:30;;;;;;;68.88;30.17;;;;;;;9.54;88.52;98961.53;5059630;28;20090;-76
2022/01/09 08:12:56;;;;;;;72.93;31.60;;;;;;;9.67;87.85;98956.47;5053032;28;20037;-76
2022/01/09 08:15:21;;;;;;;74.25;30.40;;;;;;;9.79;85.67;98962.19;5052963;28;20113;-76
2022/01/09 08:17:47;;;;;;;71.35;31.30;;;;;;;9.86;87.09;98982.47;5046651;28;20098;-76
2022/01/09 08:20:14;;;;;;;70.45;31.27;;;;;;;9.93;85.56;98961.41;5043148;28;20057;-76
2022/01/09 08:22:41;;;;;;;64.30;29.38;;;;;;;10.08;84.82;98967.59;5052093;28;20124;-76
2022/01/09 08:25:12;;;;;;;77.78;32.35;;;;;;;10.11;84.75;98961.94;5045140;28;20112;-76
2022/01/09 08:27:38;;;;;;;73.68;33.00;;;;;;;9.87;86.63;98959.47;5044293;28;20263;-78
2022/01/09 08:30:06;;;;;;;89.97;36.50;;;;;;;9.87;86.39;98957.66;5049395;28;20032;-76
2022/01/09 08:32:31;;;;;;;87.32;36.47;;;;;;;9.91;85.68;98960.78;5060525;28;20036;-76
2022/01/09 08:34:57;;;;;;;80.70;36.00;;;;;;;9.73;87.05;98961.06;5047020;28;20034;-76
2022/01/09 08:37:22;;;;;;;83.00;35.33;;;;;;;9.78;87.29;98964.00;5064502;28;20044;-76
2022/01/09 08:39:48;;;;;;;74.57;35.05;;;;;;;9.75;86.45;98955.59;5064789;28;20033;-76
2022/01/09 08:42:13;;;;;;;75.18;32.72;;;;;;;9.89;86.77;98957.47;5064157;28;20032;-76
2022/01/09 08:44:39;;;;;;;69.50;31.10;;;;;;;10.03;84.84;98950.59;5064335;28;20212;-76
2022/01/09 08:47:05;;;;;;;75.45;31.98;;;;;;;10.14;84.24;98940.41;5063206;28;20056;-76
2022/01/09 08:49:30;;;;;;;82.97;37.22;;;;;;;10.15;84.56;98935.94;5064073;28;20092;-76
2022/01/09 08:51:56;;;;;;;79.95;35.38;;;;;;;9.91;86.01;98929.88;5064274;28;20043;-76
2022/01/09 08:54:21;;;;;;;82.80;36.88;;;;;;;9.96;86.00;98929.34;5063777;28;20273;-76
2022/01/09 08:56:47;;;;;;;81.32;36.90;;;;;;;10.05;85.27;98925.63;5062483;28;20388;-76
2022/01/09 08:59:12;;;;;;;76.60;33.88;;;;;;;10.20;86.05;98945.03;5064295;28;20090;-76
2022/01/09 09:01:38;;;;;;;68.85;31.50;;;;;;;10.10;86.62;98923.25;5064024;28;20315;-76
2022/01/09 09:04:05;;;;;;;70.72;33.08;;;;;;;10.33;84.88;98935.66;5062464;28;20041;-76
2022/01/09 09:06:30;;;;;;;72.07;32.78;;;;;;;10.38;85.15;98933.28;5063953;28;20033;-76
2022/01/09 09:08:56;;;;;;;68.57;32.60;;;;;;;10.30;84.50;98922.78;5062591;28;20271;-76
2022/01/09 09:11:21;;;;;;;85.95;38.83;;;;;;;10.36;85.78;98936.13;5063473;28;20032;-76
2022/01/09 09:13:46;;;;;;;75.47;35.28;;;;;;;10.40;85.00;98924.19;5062425;28;20033;-75
2022/01/09 09:16:12;;;;;;;157.75;58.65;;;;;;;10.41;83.12;98909.97;5063829;28;20076;-76
2022/01/09 09:18:39;;;;;;;77.85;35.08;;;;;;;10.50;84.55;98921.28;5063270;28;20124;-76
2022/01/09 09:21:04;;;;;;;62.97;30.25;;;;;;;10.29;84.89;98907.91;5063836;28;20054;-76
2022/01/09 09:23:30;;;;;;;71.57;32.40;;;;;;;10.35;86.11;98918.59;5062246;28;20020;-76
2022/01/09 09:25:55;;;;;;;78.47;33.38;;;;;;;10.29;86.72;98908.72;5063378;28;20052;-76
2022/01/09 09:28:20;;;;;;;68.55;32.72;;;;;;;10.37;86.51;98911.28;5063512;28;20067;-76
2022/01/09 09:30:46;;;;;;;75.40;35.33;;;;;;;10.63;84.54;98904.75;5063544;28;20037;-76
2022/01/09 09:33:11;;;;;;;80.20;35.80;;;;;;;10.62;84.13;98897.81;5063250;28;20037;-76
2022/01/09 09:35:37;;;;;;;81.43;36.25;;;;;;;10.58;83.47;98892.06;5063430;28;20318;-76
2022/01/09 09:38:04;;;;;;;73.28;32.05;;;;;;;10.64;84.06;98901.13;5063167;28;20345;-76
2022/01/09 09:40:29;;;;;;;65.03;26.40;;;;;;;10.50;84.12;98895.63;5063230;28;20048;-76
2022/01/09 09:42:55;;;;;;;60.08;26.92;;;;;;;10.66;84.86;98899.09;5062081;28;20338;-82
2022/01/09 09:45:23;;;;;;;44.45;21.83;;;;;;;10.66;83.04;98877.94;5063509;28;20342;-82
2022/01/09 09:47:49;;;;;;;56.88;24.83;;;;;;;10.53;82.91;98878.56;5062818;28;20044;-75
2022/01/09 09:50:16;;;;;;;59.50;26.23;;;;;;;10.66;84.09;98894.63;5061836;28;20045;-81
2022/01/09 09:52:43;;;;;;;47.83;22.50;;;;;;;10.53;85.18;98892.63;5063096;28;20044;-81
2022/01/09 09:55:09;;;;;;;56.28;26.83;;;;;;;10.54;84.13;98885.50;5061447;28;20040;-81
2022/01/09 09:57:34;;;;;;;58.13;27.08;;;;;;;10.43;84.86;98889.44;5062858;28;20229;-80
2022/01/09 10:00:13;;;;;;;57.65;26.95;;;;;;;10.42;84.42;98882.50;5062894;28;20052;-80
2022/01/09 10:02:46;;;;;;;43.40;22.65;;;;;;;10.60;83.84;98874.19;5060900;28;20222;-75
2022/01/09 10:05:14;;;;;;;53.22;25.00;;;;;;;10.60;83.60;98874.19;5060377;28;20104;-80
2022/01/09 10:07:39;;;;;;;54.10;24.30;;;;;;;10.58;82.39;98873.53;5060801;28;20071;-81
2022/01/09 10:10:17;;;;;;;51.40;24.58;;;;;;;10.64;82.68;98874.63;5061567;28;20037;-78
2022/01/09 10:12:45;;;;;;;53.90;25.63;;;;;;;10.54;83.05;98865.16;5061364;28;20305;-75
2022/01/09 10:15:13;;;;;;;56.13;27.48;;;;;;;10.43;82.29;98859.50;5062415;28;20040;-82
2022/01/09 10:17:47;;;;;;;53.08;24.92;;;;;;;10.55;81.44;98865.97;5062446;28;20239;-81
2022/01/09 10:20:18;;;;;;;57.97;27.83;;;;;;;10.49;81.92;98856.13;5061858;28;20238;-75
2022/01/09 10:22:49;;;;;;;59.17;27.05;;;;;;;10.50;84.14;98852.47;5061645;28;20036;-80
2022/01/09 10:25:25;;;;;;;54.15;26.63;;;;;;;10.51;84.74;98862.03;5058495;28;20037;-80
2022/01/09 10:28:00;;;;;;;66.90;31.50;;;;;;;10.53;83.17;98852.09;5057338;28;20064;-80
2022/01/09 10:30:50;;;;;;;62.20;32.20;;;;;;;10.63;83.35;98873.00;5054593;28;20029;-79
2022/01/09 10:33:18;;;;;;;67.85;31.23;;;;;;;10.37;84.59;98862.84;5058404;28;20024;-80
2022/01/09 10:35:46;;;;;;;64.13;29.67;;;;;;;10.34;84.99;98857.91;5061226;28;20048;-80
2022/01/09 10:38:13;;;;;;;70.32;31.90;;;;;;;10.54;84.64;98849.28;5061962;28;20029;-76
2022/01/09 10:40:41;;;;;;;70.07;33.72;;;;;;;10.27;86.00;98841.94;5061098;28;20227;-81
2022/01/09 10:43:07;;;;;;;62.13;32.20;;;;;;;10.23;86.75;98836.19;5059932;28;20091;-81
2022/01/09 10:45:36;;;;;;;80.43;35.30;;;;;;;9.97;87.98;98830.47;5060442;28;20315;-75
2022/01/09 10:48:05;;;;;;;79.70;36.28;;;;;;;10.05;88.42;98819.81;5060960;28;20036;-82
2022/01/09 10:50:35;;;;;;;73.43;34.92;;;;;;;10.33;86.98;98813.94;5061447;28;20096;-80
2022/01/09 10:53:18;;;;;;;56.17;28.77;;;;;;;10.39;86.16;98792.84;5061340;28;20036;-80
2022/01/09 10:55:46;;;;;;;51.22;25.40;;;;;;;10.29;86.95;98799.44;5060782;28;20478;-80
2022/01/09 10:58:31;;;;;;;52.78;24.75;;;;;;;10.34;86.51;98805.81;5060945;28;20096;-80
2022/01/09 11:01:12;;;;;;;40.10;20.38;;;;;;;10.12;87.29;98804.88;5061289;28;20037;-80
2022/01/09 11:03:41;;;;;;;41.13;19.35;;;;;;;10.10;87.43;98806.06;5060823;28;20036;-75
2022/01/09 11:06:08;;;;;;;39.92;18.35;;;;;;;10.14;87.06;98796.75;5060857;28;20029;-80
2022/01/09 11:08:35;;;;;;;43.45;20.13;;;;;;;10.18;87.63;98796.19;5059717;28;20017;-80
2022/01/09 11:11:02;;;;;;;42.88;19.08;;;;;;;10.52;86.03;98798.34;5061074;28;20055;-80
2022/01/09 11:13:28;;;;;;;38.15;17.75;;;;;;;10.48;85.40;98789.13;5059557;28;20020;-75
2022/01/09 11:18:42;;;;;;;39.55;20.13;;;;;;;10.46;86.71;98787.66;5064638;28;20424;-81
2022/01/09 11:21:09;;;;;;;41.33;18.77;;;;;;;10.51;86.38;98780.81;5064958;28;20071;-80